Time;durP1;ratioP1;P1;durP2;ratioP2;P2;SDS_P1;SDS_P2;PMS_P1;PMS_P2;Temp;Humidity;BMP_temperature;BMP_pressure;BME280_temperature;BME280_humidity;BME280_pressure;Samples;Min_cycle;Max_cycle;Signal;HPM_P1;HPM_P2
2023/06/20 00:01:31;;;;;;;7.40;6.60;;;24.30;99.90;;;;;;5095468;28;20177;-70
2023/06/20 00:03:57;;;;;;;8.67;7.93;;;24.30;99.90;;;;;;5093769;28;20184;-70
2023/06/20 00:06:22;;;;;;;8.20;7.50;;;24.40;99.90;;;;;;5093677;28;20550;-70
2023/06/20 00:08:49;;;;;;;7.57;6.93;;;24.30;99.90;;;;;;5095756;28;20652;-70
2023/06/20 00:11:14;;;;;;;8.57;7.77;;;24.30;99.90;;;;;;5095045;28;20200;-70
2023/06/20 00:13:43;;;;;;;7.77;7.17;;;24.30;99.90;;;;;;5095629;28;20403;-69
2023/06/20 00:16:11;;;;;;;7.13;6.53;;;24.50;99.90;;;;;;5095116;28;20195;-69
2023/06/20 00:18:37;;;;;;;7.17;6.67;;;24.60;99.90;;;;;;5095185;28;20408;-70
2023/06/20 00:21:03;;;;;;;6.90;6.40;;;24.60;99.90;;;;;;5083240;28;20470;-70
2023/06/20 00:23:30;;;;;;;6.70;6.13;;;24.70;99.90;;;;;;5074908;28;20694;-70
2023/06/20 00:25:56;;;;;;;6.30;5.90;;;24.70;99.90;;;;;;5074510;28;20784;-69
2023/06/20 00:28:22;;;;;;;6.33;5.83;;;24.60;99.90;;;;;;5074660;28;20857;-70
2023/06/20 00:30:47;;;;;;;6.50;6.03;;;24.60;99.90;;;;;;5074443;28;20432;-70
2023/06/20 00:33:13;;;;;;;7.00;6.40;;;24.60;99.90;;;;;;5074352;28;20174;-70
2023/06/20 00:35:38;;;;;;;7.37;6.70;;;24.60;99.90;;;;;;5074565;28;20178;-71
2023/06/20 00:38:04;;;;;;;6.50;6.00;;;24.60;99.90;;;;;;5074254;28;20204;-70
2023/06/20 00:40:30;;;;;;;7.37;6.77;;;24.50;99.90;;;;;;5089250;28;20193;-69
2023/06/20 00:42:56;;;;;;;7.80;6.90;;;24.50;99.90;;;;;;5094869;28;20411;-70
2023/06/20 00:45:30;;;;;;;7.40;6.80;;;24.40;99.90;;;;;;5093377;28;20180;-69
2023/06/20 00:47:58;;;;;;;8.93;7.87;;;24.10;99.90;;;;;;5094839;28;20157;-69
2023/06/20 00:50:27;;;;;;;9.37;8.30;;;23.70;99.90;;;;;;5095212;28;20427;-70
2023/06/20 00:53:13;;;;;;;10.80;8.73;;;23.40;99.90;;;;;;5094431;28;20412;-69
2023/06/20 00:55:38;;;;;;;8.83;8.03;;;22.90;99.90;;;;;;5093539;28;20843;-70
2023/06/20 00:58:05;;;;;;;9.80;8.90;;;22.80;99.90;;;;;;5094211;28;20452;-68
2023/06/20 01:00:33;;;;;;;9.73;8.83;;;22.70;99.90;;;;;;5094154;28;20559;-71
2023/06/20 01:03:06;;;;;;;12.00;9.07;;;22.70;99.90;;;;;;5094476;28;20404;-69
2023/06/20 01:05:32;;;;;;;9.63;8.70;;;22.50;99.90;;;;;;5093525;28;20404;-69
2023/06/20 01:08:00;;;;;;;9.77;8.57;;;22.30;99.90;;;;;;5094532;28;20407;-69
2023/06/20 01:11:08;;;;;;;9.13;8.30;;;22.30;99.90;;;;;;5093728;28;20862;-69
2023/06/20 01:13:48;;;;;;;9.13;8.23;;;22.20;99.90;;;;;;5091261;28;20419;-70
2023/06/20 01:16:18;;;;;;;8.70;8.00;;;22.00;99.90;;;;;;5094132;28;20821;-70
2023/06/20 01:19:01;;;;;;;8.60;7.80;;;22.00;99.90;;;;;;5093858;28;20480;-70
2023/06/20 01:21:37;;;;;;;9.97;9.07;;;21.90;99.90;;;;;;5094127;28;20845;-70
2023/06/20 01:24:17;;;;;;;10.07;9.17;;;21.90;99.90;;;;;;5093901;28;20497;-70
2023/06/20 01:26:59;;;;;;;9.30;8.50;;;21.90;99.90;;;;;;5093604;28;20749;-70
2023/06/20 01:29:36;;;;;;;10.27;9.17;;;21.80;99.90;;;;;;5093730;28;20388;-71
2023/06/20 01:32:06;;;;;;;9.43;7.03;;;21.60;99.90;;;;;;5094089;28;20418;-71
2023/06/20 01:34:38;;;;;;;10.77;7.30;;;21.60;99.90;;;;;;5093971;28;20384;-71
2023/06/20 01:37:08;;;;;;;8.57;7.80;;;21.60;99.90;;;;;;5093802;28;20721;-71
2023/06/20 01:39:45;;;;;;;7.60;6.90;;;21.60;99.90;;;;;;5092489;28;20423;-70
2023/06/20 01:42:12;;;;;;;8.20;6.67;;;21.50;99.90;;;;;;5093359;28;20439;-71
2023/06/20 01:44:39;;;;;;;7.10;6.40;;;21.60;99.90;;;;;;5093490;28;20938;-70
2023/06/20 01:47:07;;;;;;;7.83;7.03;;;21.60;99.90;;;;;;5093343;28;20410;-71
2023/06/20 01:49:33;;;;;;;6.97;6.37;;;21.50;99.90;;;;;;5093267;28;20443;-71
2023/06/20 01:52:00;;;;;;;8.20;6.77;;;21.40;99.90;;;;;;5093422;28;20431;-70
2023/06/20 01:54:29;;;;;;;7.37;6.77;;;21.40;99.90;;;;;;5092289;28;20495;-71
2023/06/20 01:56:57;;;;;;;6.33;5.83;;;21.30;99.90;;;;;;5092954;28;20454;-71
2023/06/20 01:59:25;;;;;;;7.70;7.03;;;21.20;99.90;;;;;;5093050;28;20403;-71
2023/06/20 02:01:52;;;;;;;7.97;7.17;;;21.30;99.90;;;;;;5093320;28;20545;-71
2023/06/20 02:04:18;;;;;;;7.30;6.70;;;21.30;99.90;;;;;;5093087;28;20396;-71
2023/06/20 02:06:45;;;;;;;7.40;6.70;;;21.20;99.90;;;;;;5093328;28;20774;-71
2023/06/20 02:09:13;;;;;;;6.90;6.40;;;21.10;99.90;;;;;;5092969;28;20301;-71
2023/06/20 02:11:39;;;;;;;7.60;6.80;;;21.10;99.90;;;;;;5092149;28;20438;-70
2023/06/20 02:14:07;;;;;;;7.20;6.57;;;21.10;99.90;;;;;;5091377;28;20469;-70
2023/06/20 02:16:36;;;;;;;7.93;7.23;;;20.90;99.90;;;;;;5093071;28;20541;-71
2023/06/20 02:19:02;;;;;;;7.57;6.87;;;21.00;99.90;;;;;;5089932;28;20408;-71
2023/06/20 02:21:31;;;;;;;7.33;6.73;;;20.90;99.90;;;;;;5092729;28;20859;-71
2023/06/20 02:23:57;;;;;;;7.33;6.73;;;20.80;99.90;;;;;;5092651;28;20415;-70
2023/06/20 02:26:28;;;;;;;9.73;6.30;;;20.80;99.90;;;;;;5092516;28;20414;-71
2023/06/20 02:28:58;;;;;;;6.60;6.00;;;20.90;99.90;;;;;;5092842;28;20437;-71
2023/06/20 02:31:28;;;;;;;6.83;6.20;;;21.00;99.90;;;;;;5092598;28;20472;-71
2023/06/20 02:33:57;;;;;;;8.50;6.60;;;21.00;99.90;;;;;;5092587;28;20403;-70
2023/06/20 02:36:26;;;;;;;6.53;5.97;;;21.20;99.90;;;;;;5092656;28;20507;-70
2023/06/20 02:38:56;;;;;;;7.00;5.90;;;21.20;99.90;;;;;;5089091;28;20436;-70
2023/06/20 02:41:23;;;;;;;7.00;5.87;;;21.30;99.90;;;;;;5071916;28;20460;-71
2023/06/20 02:43:48;;;;;;;6.07;5.53;;;21.30;99.90;;;;;;5072470;28;20495;-70
2023/06/20 02:46:43;;;;;;;6.00;5.50;;;21.20;99.90;;;;;;5072302;28;20538;-70
2023/06/20 02:49:39;;;;;;;6.40;5.40;;;21.40;99.90;;;;;;5072475;28;20165;-71
2023/06/20 02:52:39;;;;;;;5.40;5.00;;;21.50;99.90;;;;;;5072508;28;20435;-71
2023/06/20 02:55:18;;;;;;;6.33;5.70;;;21.60;99.90;;;;;;5061401;28;20442;-71
2023/06/20 02:57:50;;;;;;;6.87;6.27;;;21.70;99.90;;;;;;5072027;28;20507;-71
2023/06/20 03:00:16;;;;;;;5.27;4.83;;;21.60;99.90;;;;;;5072302;28;20385;-71
2023/06/20 03:03:20;;;;;;;5.43;5.03;;;21.60;99.90;;;;;;5072297;28;20435;-71
2023/06/20 03:05:47;;;;;;;5.70;5.13;;;21.50;99.90;;;;;;5049953;28;20444;-71
2023/06/20 03:08:17;;;;;;;5.70;4.50;;;21.50;99.90;;;;;;5053108;28;20419;-70
2023/06/20 03:10:45;;;;;;;6.50;4.70;;;21.30;99.90;;;;;;5064870;28;20448;-71
2023/06/20 03:13:15;;;;;;;6.80;5.47;;;21.20;99.90;;;;;;5076017;28;20435;-71
2023/06/20 03:15:41;;;;;;;5.03;4.63;;;21.30;99.90;;;;;;5076756;28;20423;-71
2023/06/20 03:18:08;;;;;;;5.37;4.93;;;21.50;99.90;;;;;;5076225;28;20452;-71
2023/06/20 03:20:34;;;;;;;7.50;6.10;;;21.60;99.90;;;;;;5076358;28;20428;-71
2023/06/20 03:22:59;;;;;;;5.17;4.67;;;21.60;99.90;;;;;;5076917;28;20407;-71
2023/06/20 03:25:25;;;;;;;5.93;5.43;;;21.60;99.90;;;;;;5075651;28;20404;-71
2023/06/20 03:27:50;;;;;;;5.87;5.37;;;21.60;99.90;;;;;;5076554;28;20173;-71
2023/06/20 03:30:16;;;;;;;6.67;6.17;;;21.60;99.90;;;;;;5077407;28;20170;-71
2023/06/20 03:32:42;;;;;;;8.17;7.37;;;21.50;99.90;;;;;;5077836;28;20717;-71
2023/06/20 03:35:08;;;;;;;6.47;5.97;;;21.50;99.90;;;;;;5076756;28;20625;-71
2023/06/20 03:37:33;;;;;;;5.97;5.50;;;21.50;99.90;;;;;;5075584;28;20197;-71
2023/06/20 03:39:59;;;;;;;6.10;5.50;;;21.50;99.90;;;;;;5085492;28;20419;-71
2023/06/20 03:42:25;;;;;;;6.17;5.60;;;21.40;99.90;;;;;;5095848;28;20197;-71
2023/06/20 03:44:50;;;;;;;6.70;6.13;;;21.30;99.90;;;;;;5095947;28;20181;-71
2023/06/20 03:47:17;;;;;;;6.60;6.00;;;21.40;99.90;;;;;;5095776;28;20165;-71
2023/06/20 03:49:42;;;;;;;6.83;6.20;;;21.40;99.90;;;;;;5096084;28;20173;-71
2023/06/20 03:52:08;;;;;;;5.80;5.30;;;21.40;99.90;;;;;;5095854;28;20502;-71
2023/06/20 03:54:41;;;;;;;5.17;4.77;;;21.40;99.90;;;;;;5095408;28;20191;-71
2023/06/20 03:57:07;;;;;;;6.00;5.50;;;21.30;99.90;;;;;;5096331;28;20228;-71
2023/06/20 03:59:32;;;;;;;6.00;5.10;;;21.20;99.90;;;;;;5096059;28;20900;-70
2023/06/20 04:01:58;;;;;;;5.47;4.87;;;21.20;99.90;;;;;;5082482;28;20224;-71
2023/06/20 04:04:24;;;;;;;5.00;4.50;;;21.30;99.90;;;;;;5074118;28;20177;-70
2023/06/20 04:06:50;;;;;;;6.33;5.50;;;21.20;99.90;;;;;;5075159;28;20209;-71
2023/06/20 04:09:17;;;;;;;4.97;4.60;;;21.30;99.90;;;;;;5080086;28;20929;-71
2023/06/20 04:11:43;;;;;;;5.03;4.37;;;21.20;99.90;;;;;;5095528;28;20476;-71
2023/06/20 04:14:08;;;;;;;5.87;5.37;;;21.20;99.90;;;;;;5095348;28;20981;-71
2023/06/20 04:16:34;;;;;;;5.47;4.97;;;21.20;99.90;;;;;;5095291;28;20453;-70
2023/06/20 04:19:00;;;;;;;4.93;4.53;;;21.20;99.90;;;;;;5094522;28;20181;-70
2023/06/20 04:21:26;;;;;;;5.30;4.80;;;21.20;99.90;;;;;;5088626;28;20182;-71
2023/06/20 04:23:51;;;;;;;5.63;4.97;;;21.20;99.90;;;;;;5079820;28;20177;-70
2023/06/20 04:26:17;;;;;;;5.00;4.60;;;21.20;99.90;;;;;;5094831;28;20170;-71
2023/06/20 04:28:43;;;;;;;5.57;5.10;;;21.20;99.90;;;;;;5095467;28;20169;-70
2023/06/20 04:31:08;;;;;;;5.00;4.00;;;21.30;99.90;;;;;;5094961;28;20185;-71
2023/06/20 04:33:34;;;;;;;5.10;4.63;;;21.30;99.90;;;;;;5095414;28;20169;-71
2023/06/20 04:36:00;;;;;;;5.37;4.87;;;21.40;99.90;;;;;;5095025;28;20168;-70
2023/06/20 04:38:25;;;;;;;4.80;4.30;;;21.40;99.90;;;;;;5094967;28;20201;-71
2023/06/20 04:40:51;;;;;;;6.23;5.53;;;21.40;99.90;;;;;;5093280;28;20593;-71
2023/06/20 04:43:16;;;;;;;5.97;5.37;;;21.40;99.90;;;;;;5094831;28;20165;-71
2023/06/20 04:45:42;;;;;;;5.00;4.50;;;21.40;99.90;;;;;;5094957;28;20211;-71
2023/06/20 04:48:08;;;;;;;5.30;4.80;;;21.50;99.90;;;;;;5094772;28;20237;-70
2023/06/20 04:50:33;;;;;;;5.53;5.00;;;21.40;99.90;;;;;;5094575;28;20236;-71
2023/06/20 04:53:00;;;;;;;5.13;4.63;;;21.40;99.90;;;;;;5094804;28;20419;-71
2023/06/20 04:55:26;;;;;;;10.43;4.83;;;21.30;99.90;;;;;;5094246;28;20169;-71
2023/06/20 04:57:54;;;;;;;8.00;4.60;;;21.20;99.90;;;;;;5094415;28;20534;-71
2023/06/20 05:00:20;;;;;;;5.60;5.10;;;21.20;99.90;;;;;;5094310;28;20165;-71
2023/06/20 05:02:46;;;;;;;5.60;5.10;;;21.30;99.90;;;;;;5094138;28;20429;-70
2023/06/20 05:05:11;;;;;;;5.10;4.60;;;21.30;99.90;;;;;;5092796;28;20176;-71
2023/06/20 05:07:40;;;;;;;4.77;4.30;;;21.40;99.90;;;;;;5094002;28;20777;-71
2023/06/20 05:10:06;;;;;;;4.90;4.50;;;21.50;99.90;;;;;;5093461;28;20181;-71
2023/06/20 05:12:32;;;;;;;7.97;5.00;;;21.40;99.90;;;;;;5093940;28;20446;-70
2023/06/20 05:14:58;;;;;;;6.47;4.90;;;21.50;99.90;;;;;;5093864;28;20412;-70
2023/06/20 05:17:23;;;;;;;4.80;4.40;;;21.50;99.90;;;;;;5092495;28;20971;-70
2023/06/20 05:19:49;;;;;;;5.60;5.10;;;21.60;99.90;;;;;;5083061;28;20170;-70
2023/06/20 05:22:14;;;;;;;6.80;5.27;;;21.60;99.90;;;;;;5082506;28;20608;-70
2023/06/20 05:24:40;;;;;;;5.57;4.97;;;21.60;99.90;;;;;;5083513;28;20165;-70
2023/06/20 05:27:06;;;;;;;5.17;4.73;;;21.80;99.90;;;;;;5082591;28;20173;-70
2023/06/20 05:29:31;;;;;;;5.73;4.77;;;21.90;99.90;;;;;;5081836;28;20184;-70
2023/06/20 05:31:57;;;;;;;7.17;5.30;;;22.10;99.90;;;;;;5083805;28;20660;-71
2023/06/20 05:34:22;;;;;;;5.53;4.37;;;22.10;99.90;;;;;;5081823;28;20176;-70
2023/06/20 05:36:48;;;;;;;7.13;5.13;;;22.20;99.90;;;;;;5078193;28;20212;-70
2023/06/20 05:39:13;;;;;;;5.53;4.70;;;22.40;99.90;;;;;;5076376;28;20181;-70
2023/06/20 05:41:39;;;;;;;5.67;4.97;;;22.40;99.90;;;;;;5093681;28;20224;-71
2023/06/20 05:44:04;;;;;;;5.67;5.10;;;22.50;99.90;;;;;;5093484;28;20548;-70
2023/06/20 05:46:30;;;;;;;5.03;4.57;;;22.60;99.90;;;;;;5093244;28;20177;-70
2023/06/20 05:48:59;;;;;;;5.90;5.10;;;22.50;99.90;;;;;;5093015;28;20644;-71
2023/06/20 05:51:29;;;;;;;5.10;4.70;;;22.70;99.90;;;;;;5092700;28;20196;-70
2023/06/20 05:53:57;;;;;;;5.27;4.23;;;22.80;99.90;;;;;;5093018;28;20407;-70
2023/06/20 05:56:23;;;;;;;5.57;5.07;;;23.00;99.90;;;;;;5093172;28;20407;-70
2023/06/20 05:58:49;;;;;;;5.43;4.93;;;23.10;99.90;;;;;;5093571;28;20781;-70
2023/06/20 06:01:15;;;;;;;5.03;4.17;;;23.20;99.90;;;;;;5092796;28;20427;-70
2023/06/20 06:03:40;;;;;;;5.90;5.30;;;23.40;99.90;;;;;;5092885;28;20270;-70
2023/06/20 06:06:09;;;;;;;5.73;5.13;;;23.40;99.90;;;;;;5092705;28;20188;-71
2023/06/20 06:08:35;;;;;;;6.10;4.97;;;23.50;99.90;;;;;;5093202;28;20184;-70
2023/06/20 06:11:01;;;;;;;7.07;4.90;;;23.50;99.90;;;;;;5091724;28;20481;-70
2023/06/20 06:13:28;;;;;;;5.47;4.97;;;23.40;99.90;;;;;;5091457;28;20435;-70
2023/06/20 06:15:53;;;;;;;6.07;5.47;;;23.40;99.90;;;;;;5092893;28;20483;-69
2023/06/20 06:18:19;;;;;;;5.73;5.23;;;23.50;99.90;;;;;;5092514;28;20585;-72
2023/06/20 06:20:44;;;;;;;5.33;4.43;;;23.40;99.90;;;;;;5088598;28;20192;-70
2023/06/20 06:23:10;;;;;;;5.50;5.00;;;23.60;99.90;;;;;;5072316;28;20291;-69
2023/06/20 06:25:36;;;;;;;8.13;5.87;;;23.50;99.90;;;;;;5072299;28;20166;-70
2023/06/20 06:28:02;;;;;;;6.10;5.50;;;23.80;99.90;;;;;;5086578;28;20192;-70
2023/06/20 06:30:27;;;;;;;5.73;5.23;;;23.90;99.90;;;;;;5092617;28;20263;-70
2023/06/20 06:32:53;;;;;;;5.50;4.50;;;23.90;99.90;;;;;;5092484;28;20545;-71
2023/06/20 06:35:19;;;;;;;6.80;5.13;;;23.70;99.90;;;;;;5092525;28;20169;-70
2023/06/20 06:37:45;;;;;;;6.77;5.37;;;23.90;99.90;;;;;;5092932;28;20492;-70
2023/06/20 06:40:12;;;;;;;7.67;5.13;;;23.90;99.90;;;;;;5091424;28;20941;-70
2023/06/20 06:42:38;;;;;;;6.33;5.53;;;23.80;99.90;;;;;;5092649;28;20412;-69
2023/06/20 06:45:05;;;;;;;7.57;5.13;;;23.60;99.90;;;;;;5092200;28;20407;-69
2023/06/20 06:47:30;;;;;;;6.30;5.70;;;23.80;99.90;;;;;;5092458;28;20916;-70
2023/06/20 06:49:56;;;;;;;5.83;5.03;;;23.90;99.90;;;;;;5092401;28;20403;-70
2023/06/20 06:52:22;;;;;;;9.40;6.00;;;24.10;99.90;;;;;;5092164;28;20193;-70
2023/06/20 06:54:47;;;;;;;8.57;6.30;;;24.30;99.90;;;;;;5088763;28;20177;-69
2023/06/20 06:57:13;;;;;;;6.50;5.90;;;24.60;99.90;;;;;;5072027;28;20455;-69
2023/06/20 06:59:39;;;;;;;7.23;5.80;;;24.60;99.90;;;;;;5072001;28;20185;-70
2023/06/20 07:02:05;;;;;;;6.73;6.03;;;24.80;99.90;;;;;;5072050;28;20281;-70
2023/06/20 07:04:32;;;;;;;5.80;5.30;;;24.70;99.90;;;;;;5071943;28;20170;-70
2023/06/20 07:06:57;;;;;;;7.63;5.50;;;24.80;99.90;;;;;;5072198;28;20400;-69
2023/06/20 07:09:23;;;;;;;8.23;5.20;;;24.80;99.90;;;;;;5076175;28;20541;-70
2023/06/20 07:11:48;;;;;;;7.17;6.10;;;24.70;99.90;;;;;;5091616;28;20310;-70
2023/06/20 07:14:14;;;;;;;6.03;5.47;;;24.80;99.90;;;;;;5092196;28;20665;-70
2023/06/20 07:16:40;;;;;;;7.60;6.70;;;24.90;99.90;;;;;;5091660;28;20204;-70
2023/06/20 07:19:05;;;;;;;7.30;5.50;;;25.00;99.90;;;;;;5091778;28;20671;-70
2023/06/20 07:21:31;;;;;;;6.43;5.80;;;25.00;99.90;;;;;;5092118;28;20427;-70
2023/06/20 07:23:56;;;;;;;5.77;4.73;;;25.10;99.90;;;;;;5091745;28;20632;-70
2023/06/20 07:26:22;;;;;;;7.27;6.10;;;25.20;99.90;;;;;;5091525;28;20184;-70
2023/06/20 07:28:48;;;;;;;6.67;6.17;;;25.10;99.90;;;;;;5091758;28;20546;-70
2023/06/20 07:31:20;;;;;;;8.47;5.87;;;25.00;99.90;;;;;;5090547;28;20205;-70
2023/06/20 07:33:46;;;;;;;6.07;5.50;;;25.00;99.90;;;;;;5092163;28;20534;-70
2023/06/20 07:36:12;;;;;;;6.50;5.90;;;25.30;99.90;;;;;;5091829;28;20423;-70
2023/06/20 07:38:38;;;;;;;6.20;5.37;;;25.40;99.90;;;;;;5091551;28;20396;-69
2023/06/20 07:41:04;;;;;;;5.23;4.83;;;25.60;99.90;;;;;;5091407;28;20485;-69
2023/06/20 07:43:29;;;;;;;8.77;6.07;;;26.00;99.90;;;;;;5092139;28;20170;-68
2023/06/20 07:45:55;;;;;;;7.00;6.40;;;26.10;99.90;;;;;;5090442;28;20173;-70
2023/06/20 07:48:24;;;;;;;6.63;5.20;;;25.70;99.90;;;;;;5091661;28;20205;-69
2023/06/20 07:50:50;;;;;;;6.20;5.47;;;25.60;99.90;;;;;;5091742;28;20419;-69
2023/06/20 07:53:15;;;;;;;6.00;5.13;;;25.90;99.90;;;;;;5093060;28;20468;-70
2023/06/20 07:55:41;;;;;;;6.57;5.90;;;26.00;99.90;;;;;;5094756;28;20234;-70
2023/06/20 07:58:07;;;;;;;6.57;5.73;;;26.00;99.90;;;;;;5093885;28;20280;-69
2023/06/20 08:00:33;;;;;;;7.57;6.73;;;25.90;99.90;;;;;;5095415;28;20181;-70
2023/06/20 08:02:59;;;;;;;7.53;5.83;;;26.10;99.90;;;;;;5095276;28;20399;-70
2023/06/20 08:05:24;;;;;;;8.10;5.80;;;26.10;99.90;;;;;;5095597;28;20176;-69
2023/06/20 08:07:50;;;;;;;7.03;6.13;;;26.30;99.90;;;;;;5095200;28;20170;-69
2023/06/20 08:10:15;;;;;;;6.23;5.70;;;26.50;99.90;;;;;;5094482;28;20196;-69
2023/06/20 08:12:41;;;;;;;7.10;6.40;;;26.50;99.90;;;;;;5095351;28;20256;-70
2023/06/20 08:15:07;;;;;;;6.43;5.80;;;26.60;99.90;;;;;;5095367;28;20575;-69
2023/06/20 08:17:33;;;;;;;7.00;5.97;;;26.80;99.90;;;;;;5095522;28;20192;-70
2023/06/20 08:19:59;;;;;;;6.70;6.00;;;26.90;99.90;;;;;;5088281;28;20412;-72
2023/06/20 08:22:26;;;;;;;6.80;6.20;;;26.90;99.90;;;;;;5074848;28;20178;-72
2023/06/20 08:24:52;;;;;;;7.27;5.70;;;26.80;99.90;;;;;;5089693;28;20407;-71
2023/06/20 08:27:17;;;;;;;7.13;6.43;;;27.00;99.90;;;;;;5094604;28;20426;-71
2023/06/20 08:29:43;;;;;;;8.10;6.10;;;27.00;99.90;;;;;;5095094;28;20169;-71
2023/06/20 08:32:09;;;;;;;6.13;5.53;;;27.00;99.90;;;;;;5094716;28;20195;-71
2023/06/20 08:34:34;;;;;;;6.57;5.97;;;26.90;99.90;;;;;;5094956;28;20172;-70
2023/06/20 08:37:00;;;;;;;6.87;6.33;;;26.90;99.90;;;;;;5095126;28;20193;-71
2023/06/20 08:39:26;;;;;;;8.37;6.37;;;27.00;99.90;;;;;;5093603;28;20688;-71
2023/06/20 08:41:52;;;;;;;6.70;6.10;;;26.90;99.90;;;;;;5094376;28;20296;-71
2023/06/20 08:44:17;;;;;;;7.57;5.67;;;27.00;99.90;;;;;;5094670;28;20176;-71
2023/06/20 08:46:45;;;;;;;6.47;5.87;;;26.90;99.90;;;;;;5094807;28;20170;-71
2023/06/20 08:49:14;;;;;;;7.37;6.60;;;27.00;99.90;;;;;;5095175;28;20264;-71
2023/06/20 08:51:43;;;;;;;7.40;5.73;;;27.10;99.90;;;;;;5094672;28;20419;-71
2023/06/20 08:54:13;;;;;;;10.30;6.50;;;27.20;99.90;;;;;;5094256;28;20832;-71
2023/06/20 08:56:39;;;;;;;7.00;6.03;;;27.20;99.90;;;;;;5094264;28;20447;-70
2023/06/20 08:59:05;;;;;;;7.77;6.53;;;27.20;99.90;;;;;;5094287;28;20403;-70
2023/06/20 09:01:30;;;;;;;7.60;6.80;;;27.10;99.90;;;;;;5094309;28;20200;-71
2023/06/20 09:04:00;;;;;;;7.00;6.30;;;27.20;99.90;;;;;;5093658;28;20656;-71
2023/06/20 09:06:37;;;;;;;8.00;7.07;;;27.40;99.90;;;;;;5093633;28;20169;-71
2023/06/20 09:09:04;;;;;;;9.80;6.40;;;27.50;99.90;;;;;;5094668;28;20400;-71
2023/06/20 09:11:35;;;;;;;8.03;6.70;;;27.50;99.90;;;;;;5094099;28;20431;-71
2023/06/20 09:14:01;;;;;;;6.77;6.17;;;27.70;99.90;;;;;;5094697;28;20831;-71
2023/06/20 09:16:28;;;;;;;7.13;6.53;;;27.80;99.90;;;;;;5094182;28;20410;-71
2023/06/20 09:19:01;;;;;;;7.53;6.73;;;27.90;99.90;;;;;;5094030;28;20404;-71
2023/06/20 09:21:27;;;;;;;7.43;6.30;;;27.70;99.90;;;;;;5094194;28;20423;-70
2023/06/20 09:24:03;;;;;;;6.63;5.93;;;27.90;99.90;;;;;;5094185;28;20399;-71
2023/06/20 09:26:30;;;;;;;6.77;6.17;;;28.10;99.90;;;;;;5092132;28;20427;-71
2023/06/20 09:29:16;;;;;;;7.03;6.33;;;28.30;99.90;;;;;;5094381;28;20403;-71
2023/06/20 09:31:47;;;;;;;7.23;6.57;;;28.30;99.90;;;;;;5093675;28;20495;-71
2023/06/20 09:34:14;;;;;;;7.27;6.50;;;28.20;99.90;;;;;;5092194;28;20403;-71
2023/06/20 09:36:41;;;;;;;12.23;7.23;;;28.30;99.90;;;;;;5093891;28;20473;-71
2023/06/20 09:39:20;;;;;;;7.60;5.97;;;28.40;99.90;;;;;;5093524;28;20438;-69
2023/06/20 09:41:47;;;;;;;8.67;6.73;;;28.40;99.90;;;;;;5093227;28;20470;-70
2023/06/20 09:44:19;;;;;;;6.83;6.13;;;28.60;99.90;;;;;;5093779;28;20706;-71
2023/06/20 09:46:45;;;;;;;7.37;6.50;;;28.80;99.90;;;;;;5093418;28;20430;-71
2023/06/20 09:49:12;;;;;;;7.03;6.30;;;29.00;99.90;;;;;;5093314;28;20875;-71
2023/06/20 09:51:47;;;;;;;6.73;6.07;;;29.10;99.90;;;;;;5093349;28;20462;-71
2023/06/20 09:54:15;;;;;;;7.30;5.97;;;29.20;99.90;;;;;;5093172;28;20429;-70
2023/06/20 09:56:49;;;;;;;8.90;6.60;;;29.20;98.90;;;;;;5093084;28;20778;-69
2023/06/20 09:59:16;;;;;;;7.37;5.73;;;29.20;98.60;;;;;;5092982;28;20410;-71
2023/06/20 10:01:42;;;;;;;7.50;5.87;;;29.30;98.60;;;;;;5092915;28;20446;-71
2023/06/20 10:04:09;;;;;;;7.07;6.27;;;29.60;98.50;;;;;;5091839;28;20988;-70
2023/06/20 10:06:37;;;;;;;7.33;6.00;;;29.70;98.20;;;;;;5093335;28;20461;-71
2023/06/20 10:09:09;;;;;;;6.17;5.63;;;29.70;97.10;;;;;;5093324;28;20794;-71
2023/06/20 10:11:39;;;;;;;7.57;5.90;;;30.00;97.80;;;;;;5093372;28;20419;-72
2023/06/20 10:14:06;;;;;;;6.30;5.70;;;30.10;96.30;;;;;;5093261;28;20428;-71
2023/06/20 10:16:31;;;;;;;9.43;6.37;;;30.10;95.80;;;;;;5092162;28;20415;-72
2023/06/20 10:18:57;;;;;;;7.20;6.50;;;30.30;96.20;;;;;;5093248;28;20468;-70
2023/06/20 10:21:57;;;;;;;7.10;5.63;;;30.30;95.10;;;;;;5092514;28;20216;-71
2023/06/20 10:24:28;;;;;;;6.30;5.70;;;30.40;94.70;;;;;;5090915;28;20178;-72
2023/06/20 10:26:59;;;;;;;6.20;5.60;;;30.50;93.60;;;;;;5072836;28;20457;-71
2023/06/20 10:29:25;;;;;;;6.17;5.57;;;30.60;93.40;;;;;;5071647;28;20814;-71
2023/06/20 10:32:09;;;;;;;6.27;5.23;;;30.70;93.00;;;;;;5071691;28;20420;-72
2023/06/20 10:34:39;;;;;;;7.20;5.97;;;30.60;93.20;;;;;;5090318;28;20278;-72
2023/06/20 10:37:20;;;;;;;7.20;5.17;;;30.90;91.70;;;;;;5092573;28;20478;-71
2023/06/20 10:39:56;;;;;;;6.20;5.40;;;31.00;91.30;;;;;;5091098;28;20411;-71
2023/06/20 10:42:31;;;;;;;7.73;5.47;;;30.90;90.70;;;;;;5092233;28;20444;-71
2023/06/20 10:45:20;;;;;;;5.63;5.13;;;30.80;92.20;;;;;;5092202;28;20426;-71
2023/06/20 10:47:46;;;;;;;5.97;5.37;;;31.20;87.90;;;;;;5092464;28;20422;-71
2023/06/20 10:50:13;;;;;;;10.87;5.93;;;31.40;86.70;;;;;;5092607;28;20437;-72
2023/06/20 10:52:39;;;;;;;9.07;5.43;;;31.60;89.20;;;;;;5090989;28;20396;-72
2023/06/20 10:55:26;;;;;;;5.53;4.80;;;31.40;84.60;;;;;;5092271;28;20398;-71
2023/06/20 10:57:52;;;;;;;5.60;5.10;;;31.50;83.70;;;;;;5092272;28;20427;-71
2023/06/20 11:00:20;;;;;;;6.03;5.37;;;31.70;86.30;;;;;;5092549;28;20449;-71
2023/06/20 11:02:54;;;;;;;5.77;5.27;;;31.80;84.20;;;;;;5091040;28;20808;-71
2023/06/20 11:05:26;;;;;;;8.77;5.33;;;31.90;83.60;;;;;;5092333;28;20419;-71
2023/06/20 11:07:55;;;;;;;7.20;6.00;;;32.30;82.20;;;;;;5091949;28;20751;-72
2023/06/20 11:10:26;;;;;;;6.03;5.43;;;32.30;80.70;;;;;;5091494;28;20983;-71
2023/06/20 11:12:52;;;;;;;6.40;5.33;;;31.80;77.90;;;;;;5092187;28;20456;-72
2023/06/20 11:15:29;;;;;;;6.40;5.00;;;31.90;79.30;;;;;;5091645;28;20399;-71
2023/06/20 11:17:56;;;;;;;9.60;5.73;;;32.20;82.50;;;;;;5091312;28;20654;-71
2023/06/20 11:20:26;;;;;;;6.67;5.40;;;32.60;76.80;;;;;;5092389;28;20474;-71
2023/06/20 11:22:53;;;;;;;5.93;5.43;;;32.30;77.90;;;;;;5092573;28;20461;-72
2023/06/20 11:25:29;;;;;;;6.10;5.50;;;32.60;76.00;;;;;;5091303;28;20395;-71
2023/06/20 11:28:03;;;;;;;5.43;4.93;;;32.90;72.90;;;;;;5093004;28;20425;-71
2023/06/20 11:30:30;;;;;;;7.33;5.00;;;33.00;72.00;;;;;;5095738;28;20450;-71
2023/06/20 11:33:13;;;;;;;7.57;5.73;;;33.30;71.90;;;;;;5096022;28;20399;-71
2023/06/20 11:35:53;;;;;;;8.83;5.90;;;33.90;70.50;;;;;;5095873;28;20761;-70
2023/06/20 11:38:24;;;;;;;6.00;4.70;;;34.60;66.60;;;;;;5095735;28;20469;-72
2023/06/20 11:41:03;;;;;;;6.10;5.03;;;35.20;66.10;;;;;;5094831;28;20470;-72
2023/06/20 11:43:35;;;;;;;6.40;5.30;;;36.00;62.70;;;;;;5096152;28;20490;-72
2023/06/20 11:46:01;;;;;;;5.43;4.97;;;36.50;60.00;;;;;;5095814;28;20466;-72
2023/06/20 11:48:28;;;;;;;5.07;4.60;;;36.50;59.00;;;;;;5096015;28;20430;-71
2023/06/20 11:51:04;;;;;;;8.67;5.70;;;37.00;58.80;;;;;;5096040;28;20664;-71
2023/06/20 11:53:33;;;;;;;8.10;5.20;;;37.50;56.90;;;;;;5095852;28;20769;-71
2023/06/20 11:56:04;;;;;;;7.73;5.60;;;38.20;55.80;;;;;;5094838;28;20414;-71
2023/06/20 11:58:45;;;;;;;5.40;4.90;;;37.50;55.60;;;;;;5095673;28;20514;-71
2023/06/20 12:01:20;;;;;;;8.83;6.00;;;37.40;56.00;;;;;;5095358;28;21023;-71
2023/06/20 12:04:00;;;;;;;6.03;5.10;;;37.20;56.90;;;;;;5095220;28;20476;-71
2023/06/20 12:06:28;;;;;;;5.60;4.80;;;37.30;56.40;;;;;;5095068;28;20862;-71
2023/06/20 12:09:06;;;;;;;7.03;5.30;;;37.50;56.70;;;;;;5094931;28;20396;-70
2023/06/20 12:11:32;;;;;;;7.70;5.60;;;38.10;55.50;;;;;;5095088;28;20511;-72
2023/06/20 12:13:58;;;;;;;6.63;5.53;;;38.50;57.00;;;;;;5095024;28;20787;-71
2023/06/20 12:16:24;;;;;;;6.43;5.20;;;38.60;54.40;;;;;;5095198;28;20268;-71
2023/06/20 12:18:51;;;;;;;5.60;5.07;;;40.20;51.70;;;;;;5095650;28;20638;-71
2023/06/20 12:21:17;;;;;;;6.27;5.40;;;40.70;51.20;;;;;;5095073;28;20422;-70
2023/06/20 12:23:43;;;;;;;9.07;5.50;;;39.60;50.90;;;;;;5091859;28;20434;-71
2023/06/20 12:26:09;;;;;;;9.63;5.83;;;38.90;53.00;;;;;;5094774;28;20403;-71
2023/06/20 12:28:36;;;;;;;6.50;5.30;;;38.20;52.10;;;;;;5095992;28;20942;-71
2023/06/20 12:31:04;;;;;;;6.40;5.80;;;38.30;52.10;;;;;;5094294;28;20189;-71
2023/06/20 12:33:29;;;;;;;8.83;5.27;;;39.50;51.60;;;;;;5092632;28;20487;-71
2023/06/20 12:35:55;;;;;;;5.43;4.97;;;40.50;51.20;;;;;;5075423;28;20438;-71
2023/06/20 12:38:21;;;;;;;8.10;5.30;;;41.10;48.50;;;;;;5074955;28;20201;-71
2023/06/20 12:40:47;;;;;;;5.47;4.87;;;41.20;46.60;;;;;;5087197;28;20239;-70
2023/06/20 12:43:13;;;;;;;8.60;5.20;;;39.70;47.60;;;;;;5095578;28;20702;-70
2023/06/20 12:45:39;;;;;;;11.23;5.93;;;39.70;48.60;;;;;;5095223;28;20184;-70
2023/06/20 12:48:05;;;;;;;7.33;5.83;;;41.20;46.20;;;;;;5094741;28;20407;-70
2023/06/20 12:50:33;;;;;;;7.80;5.70;;;40.40;47.00;;;;;;5094313;28;20246;-70
2023/06/20 12:52:59;;;;;;;6.33;5.10;;;40.50;47.60;;;;;;5094521;28;20156;-70